sensor_id;sensor_type;location;lat;lon;timestamp;pressure;altitude;pressure_sealevel;temperature;humidity
33280;BME280;20403;43.114;12.434;2023-02-16T00:00:45;100515.59;;;4.03;100.00
33280;BME280;20403;43.114;12.434;2023-02-16T00:03:19;100522.47;;;4.12;100.00
33280;BME280;20403;43.114;12.434;2023-02-16T00:05:46;100521.66;;;4.11;100.00
33280;BME280;20403;43.114;12.434;2023-02-16T00:08:12;100521.69;;;4.02;100.00
33280;BME280;20403;43.114;12.434;2023-02-16T00:10:38;100525.16;;;3.83;100.00
33280;BME280;20403;43.114;12.434;2023-02-16T00:13:20;100509.88;;;3.99;100.00
33280;BME280;20403;43.114;12.434;2023-02-16T00:16:19;100514.19;;;3.81;100.00
33280;BME280;20403;43.114;12.434;2023-02-16T00:18:46;100513.63;;;3.87;100.00
33280;BME280;20403;43.114;12.434;2023-02-16T00:21:11;100518.47;;;3.90;100.00
33280;BME280;20403;43.114;12.434;2023-02-16T00:23:37;100520.69;;;3.85;100.00
33280;BME280;20403;43.114;12.434;2023-02-16T00:26:03;100516.25;;;3.77;100.00
33280;BME280;20403;43.114;12.434;2023-02-16T00:28:29;100513.50;;;3.78;100.00
33280;BME280;20403;43.114;12.434;2023-02-16T00:30:54;100512.06;;;3.66;100.00
33280;BME280;20403;43.114;12.434;2023-02-16T00:33:20;100513.38;;;3.80;100.00
33280;BME280;20403;43.114;12.434;2023-02-16T00:35:46;100515.94;;;3.80;100.00
33280;BME280;20403;43.114;12.434;2023-02-16T00:38:12;100507.75;;;3.57;100.00
33280;BME280;20403;43.114;12.434;2023-02-16T00:40:38;100506.72;;;3.77;100.00
33280;BME280;20403;43.114;12.434;2023-02-16T00:43:04;100509.31;;;3.77;100.00
33280;BME280;20403;43.114;12.434;2023-02-16T00:45:32;100513.69;;;3.67;100.00
33280;BME280;20403;43.114;12.434;2023-02-16T00:48:00;100518.06;;;3.57;100.00
33280;BME280;20403;43.114;12.434;2023-02-16T00:50:28;100512.78;;;3.58;100.00
33280;BME280;20403;43.114;12.434;2023-02-16T00:52:54;100509.09;;;3.61;100.00
33280;BME280;20403;43.114;12.434;2023-02-16T00:55:26;100519.31;;;3.53;100.00
33280;BME280;20403;43.114;12.434;2023-02-16T07:17:37;100588.97;;;3.04;100.00
33280;BME280;20403;43.114;12.434;2023-02-16T07:20:04;100593.72;;;3.19;100.00
33280;BME280;20403;43.114;12.434;2023-02-16T07:22:30;100590.84;;;3.51;100.00
33280;BME280;20403;43.114;12.434;2023-02-16T07:24:56;100588.34;;;3.69;100.00
33280;BME280;20403;43.114;12.434;2023-02-16T07:27:23;100582.94;;;3.99;100.00
33280;BME280;20403;43.114;12.434;2023-02-16T07:29:49;100581.09;;;4.19;100.00
33280;BME280;20403;43.114;12.434;2023-02-16T07:32:14;100586.03;;;4.40;100.00
33280;BME280;20403;43.114;12.434;2023-02-16T07:34:40;100591.84;;;4.70;100.00
33280;BME280;20403;43.114;12.434;2023-02-16T07:37:05;100600.25;;;5.08;100.00
33280;BME280;20403;43.114;12.434;2023-02-16T07:39:30;100591.81;;;5.42;100.00
33280;BME280;20403;43.114;12.434;2023-02-16T07:41:56;100598.91;;;5.66;100.00
33280;BME280;20403;43.114;12.434;2023-02-16T07:44:21;100593.53;;;5.85;100.00
33280;BME280;20403;43.114;12.434;2023-02-16T07:46:46;100597.94;;;5.93;100.00
33280;BME280;20403;43.114;12.434;2023-02-16T07:49:12;100592.59;;;6.21;100.00
33280;BME280;20403;43.114;12.434;2023-02-16T07:51:37;100601.41;;;6.36;100.00
33280;BME280;20403;43.114;12.434;2023-02-16T07:54:04;100601.41;;;6.44;100.00
33280;BME280;20403;43.114;12.434;2023-02-16T07:56:31;100599.00;;;6.43;100.00
33280;BME280;20403;43.114;12.434;2023-02-16T07:58:59;100602.75;;;6.57;100.00
33280;BME280;20403;43.114;12.434;2023-02-16T08:01:25;100606.00;;;6.59;100.00
33280;BME280;20403;43.114;12.434;2023-02-16T08:03:50;100602.75;;;6.65;100.00
33280;BME280;20403;43.114;12.434;2023-02-16T08:06:16;100605.84;;;6.77;100.00
33280;BME280;20403;43.114;12.434;2023-02-16T08:08:43;100600.16;;;6.65;100.00
33280;BME280;20403;43.114;12.434;2023-02-16T08:11:09;100599.31;;;6.48;100.00
33280;BME280;20403;43.114;12.434;2023-02-16T08:13:35;100605.06;;;6.68;100.00
33280;BME280;20403;43.114;12.434;2023-02-16T08:16:00;100601.97;;;6.81;100.00
33280;BME280;20403;43.114;12.434;2023-02-16T08:18:25;100603.78;;;6.97;100.00
33280;BME280;20403;43.114;12.434;2023-02-16T08:20:51;100608.84;;;6.98;100.00
33280;BME280;20403;43.114;12.434;2023-02-16T08:23:16;100607.03;;;7.07;100.00
33280;BME280;20403;43.114;12.434;2023-02-16T08:25:42;100619.69;;;7.02;100.00
33280;BME280;20403;43.114;12.434;2023-02-16T08:28:08;100620.34;;;7.28;100.00
33280;BME280;20403;43.114;12.434;2023-02-16T08:30:33;100618.25;;;7.40;100.00
33280;BME280;20403;43.114;12.434;2023-02-16T08:32:59;100617.72;;;7.61;100.00
33280;BME280;20403;43.114;12.434;2023-02-16T08:35:29;100624.31;;;7.96;100.00
33280;BME280;20403;43.114;12.434;2023-02-16T08:37:57;100620.50;;;8.24;100.00
33280;BME280;20403;43.114;12.434;2023-02-16T08:40:23;100620.13;;;8.35;100.00
33280;BME280;20403;43.114;12.434;2023-02-16T08:42:50;100627.88;;;8.51;100.00
33280;BME280;20403;43.114;12.434;2023-02-16T08:45:15;100620.63;;;8.70;100.00
33280;BME280;20403;43.114;12.434;2023-02-16T08:47:42;100619.59;;;8.79;100.00
33280;BME280;20403;43.114;12.434;2023-02-16T08:50:08;100625.81;;;8.70;100.00
33280;BME280;20403;43.114;12.434;2023-02-16T08:52:35;100633.28;;;8.41;100.00
33280;BME280;20403;43.114;12.434;2023-02-16T08:55:00;100631.38;;;8.67;100.00
33280;BME280;20403;43.114;12.434;2023-02-16T08:57:26;100633.75;;;8.76;100.00
33280;BME280;20403;43.114;12.434;2023-02-16T08:59:51;100639.03;;;8.91;100.00
33280;BME280;20403;43.114;12.434;2023-02-16T09:02:36;100634.63;;;9.15;100.00
33280;BME280;20403;43.114;12.434;2023-02-16T09:05:02;100633.94;;;8.98;100.00
33280;BME280;20403;43.114;12.434;2023-02-16T09:07:27;100638.38;;;8.89;100.00
33280;BME280;20403;43.114;12.434;2023-02-16T09:09:53;100636.91;;;8.95;100.00
33280;BME280;20403;43.114;12.434;2023-02-16T09:12:18;100635.25;;;9.40;100.00
33280;BME280;20403;43.114;12.434;2023-02-16T09:14:44;100635.41;;;9.76;100.00
33280;BME280;20403;43.114;12.434;2023-02-16T09:17:09;100633.91;;;9.97;100.00
33280;BME280;20403;43.114;12.434;2023-02-16T09:19:36;100635.63;;;10.19;100.00
33280;BME280;20403;43.114;12.434;2023-02-16T09:22:01;100640.47;;;10.22;100.00
33280;BME280;20403;43.114;12.434;2023-02-16T09:24:28;100644.50;;;10.55;100.00
33280;BME280;20403;43.114;12.434;2023-02-16T09:26:53;100636.06;;;10.74;100.00
33280;BME280;20403;43.114;12.434;2023-02-16T09:29:19;100650.59;;;10.62;100.00
33280;BME280;20403;43.114;12.434;2023-02-16T09:31:45;100643.72;;;10.97;100.00
33280;BME280;20403;43.114;12.434;2023-02-16T09:34:21;100645.94;;;11.43;100.00
33280;BME280;20403;43.114;12.434;2023-02-16T09:36:48;100655.38;;;11.66;100.00
33280;BME280;20403;43.114;12.434;2023-02-16T09:39:14;100648.03;;;11.83;100.00
33280;BME280;20403;43.114;12.434;2023-02-16T09:44:52;100650.59;;;11.97;100.00
33280;BME280;20403;43.114;12.434;2023-02-16T09:47:26;100652.13;;;12.20;100.00
33280;BME280;20403;43.114;12.434;2023-02-16T09:50:02;100653.91;;;12.19;100.00
33280;BME280;20403;43.114;12.434;2023-02-16T09:52:39;100641.78;;;12.05;100.00
33280;BME280;20403;43.114;12.434;2023-02-16T09:55:14;100650.19;;;12.35;100.00
33280;BME280;20403;43.114;12.434;2023-02-16T09:58:28;100652.78;;;11.94;100.00
33280;BME280;20403;43.114;12.434;2023-02-16T10:03:39;100647.81;;;12.47;100.00
33280;BME280;20403;43.114;12.434;2023-02-16T10:09:08;100649.66;;;12.53;100.00
33280;BME280;20403;43.114;12.434;2023-02-16T10:11:43;100652.69;;;12.57;100.00
33280;BME280;20403;43.114;12.434;2023-02-16T10:14:39;100649.13;;;12.78;100.00
33280;BME280;20403;43.114;12.434;2023-02-16T10:20:12;100655.16;;;12.78;100.00
33280;BME280;20403;43.114;12.434;2023-02-16T10:22:49;100644.19;;;12.42;100.00
33280;BME280;20403;43.114;12.434;2023-02-16T10:25:24;100646.69;;;12.70;100.00
33280;BME280;20403;43.114;12.434;2023-02-16T10:28:16;100641.75;;;13.15;100.00
33280;BME280;20403;43.114;12.434;2023-02-16T10:30:57;100645.56;;;12.99;100.00
33280;BME280;20403;43.114;12.434;2023-02-16T10:33:32;100638.28;;;13.08;100.00
33280;BME280;20403;43.114;12.434;2023-02-16T10:36:13;100647.16;;;13.00;100.00
33280;BME280;20403;43.114;12.434;2023-02-16T10:41:43;100634.31;;;13.45;100.00
33280;BME280;20403;43.114;12.434;2023-02-16T10:44:22;100636.94;;;13.52;100.00
33280;BME280;20403;43.114;12.434;2023-02-16T10:46:55;100639.16;;;13.41;100.00
33280;BME280;20403;43.114;12.434;2023-02-16T10:49:23;100635.13;;;13.45;100.00
33280;BME280;20403;43.114;12.434;2023-02-16T10:51:51;100631.28;;;13.48;100.00
33280;BME280;20403;43.114;12.434;2023-02-16T10:54:22;100635.31;;;13.24;100.00
33280;BME280;20403;43.114;12.434;2023-02-16T10:57:01;100635.31;;;13.44;100.00
33280;BME280;20403;43.114;12.434;2023-02-16T10:59:45;100624.22;;;13.55;100.00
33280;BME280;20403;43.114;12.434;2023-02-16T11:02:29;100629.28;;;13.57;100.00
33280;BME280;20403;43.114;12.434;2023-02-16T11:04:59;100624.53;;;14.05;100.00
33280;BME280;20403;43.114;12.434;2023-02-16T11:07:28;100628.16;;;14.04;100.00
33280;BME280;20403;43.114;12.434;2023-02-16T11:09:57;100619.38;;;14.37;100.00
33280;BME280;20403;43.114;12.434;2023-02-16T11:12:32;100618.31;;;14.83;100.00
33280;BME280;20403;43.114;12.434;2023-02-16T11:15:04;100618.97;;;14.79;100.00
33280;BME280;20403;43.114;12.434;2023-02-16T11:17:32;100627.75;;;14.14;100.00
33280;BME280;20403;43.114;12.434;2023-02-16T11:30:59;100605.91;;;14.97;100.00
33280;BME280;20403;43.114;12.434;2023-02-16T11:33:26;100607.88;;;14.32;100.00
33280;BME280;20403;43.114;12.434;2023-02-16T11:35:53;100604.03;;;14.34;100.00
33280;BME280;20403;43.114;12.434;2023-02-16T11:38:34;100592.97;;;14.70;100.00
33280;BME280;20403;43.114;12.434;2023-02-16T11:41:04;100607.16;;;14.95;100.00
33280;BME280;20403;43.114;12.434;2023-02-16T11:43:37;100599.31;;;14.88;100.00
33280;BME280;20403;43.114;12.434;2023-02-16T11:48:32;100590.06;;;14.79;100.00
33280;BME280;20403;43.114;12.434;2023-02-16T11:51:06;100596.47;;;14.58;100.00
33280;BME280;20403;43.114;12.434;2023-02-16T11:53:34;100589.84;;;14.87;100.00
33280;BME280;20403;43.114;12.434;2023-02-16T11:56:22;100586.47;;;15.05;100.00
33280;BME280;20403;43.114;12.434;2023-02-16T11:59:14;100581.97;;;15.12;100.00
33280;BME280;20403;43.114;12.434;2023-02-16T12:05:14;100568.44;;;14.83;100.00
33280;BME280;20403;43.114;12.434;2023-02-16T12:10:30;100562.91;;;14.66;100.00
33280;BME280;20403;43.114;12.434;2023-02-16T12:13:13;100565.16;;;14.88;100.00
33280;BME280;20403;43.114;12.434;2023-02-16T12:15:47;100564.31;;;14.94;100.00
33280;BME280;20403;43.114;12.434;2023-02-16T12:18:29;100552.31;;;15.05;100.00
33280;BME280;20403;43.114;12.434;2023-02-16T12:29:28;100551.66;;;14.84;100.00
33280;BME280;20403;43.114;12.434;2023-02-16T12:34:50;100538.69;;;15.15;100.00
33280;BME280;20403;43.114;12.434;2023-02-16T12:40:06;100536.06;;;15.77;100.00
33280;BME280;20403;43.114;12.434;2023-02-16T12:42:41;100530.22;;;15.74;100.00
33280;BME280;20403;43.114;12.434;2023-02-16T12:45:18;100528.88;;;16.02;98.68
33280;BME280;20403;43.114;12.434;2023-02-16T12:47:50;100531.09;;;15.87;94.70
33280;BME280;20403;43.114;12.434;2023-02-16T12:50:25;100526.19;;;15.53;100.00
33280;BME280;20403;43.114;12.434;2023-02-16T12:55:43;100517.34;;;15.85;100.00
33280;BME280;20403;43.114;12.434;2023-02-16T12:58:15;100510.34;;;15.97;100.00
33280;BME280;20403;43.114;12.434;2023-02-16T13:00:46;100508.72;;;15.96;100.00
33280;BME280;20403;43.114;12.434;2023-02-16T13:03:37;100508.22;;;15.50;100.00
33280;BME280;20403;43.114;12.434;2023-02-16T13:11:20;100504.78;;;15.50;100.00
33280;BME280;20403;43.114;12.434;2023-02-16T13:13:50;100505.22;;;15.47;100.00
33280;BME280;20403;43.114;12.434;2023-02-16T13:18:49;100501.44;;;14.74;100.00
33280;BME280;20403;43.114;12.434;2023-02-16T13:29:54;100496.78;;;15.01;100.00
33280;BME280;20403;43.114;12.434;2023-02-16T13:35:00;100488.47;;;14.54;100.00
33280;BME280;20403;43.114;12.434;2023-02-16T13:45:50;100478.59;;;14.49;100.00
33280;BME280;20403;43.114;12.434;2023-02-16T13:48:50;100473.88;;;14.83;100.00
33280;BME280;20403;43.114;12.434;2023-02-16T13:51:21;100473.59;;;14.73;100.00
33280;BME280;20403;43.114;12.434;2023-02-16T13:53:56;100474.81;;;14.70;100.00
33280;BME280;20403;43.114;12.434;2023-02-16T13:58:55;100487.44;;;14.23;100.00
33280;BME280;20403;43.114;12.434;2023-02-16T14:04:00;100478.19;;;14.46;100.00
33280;BME280;20403;43.114;12.434;2023-02-16T14:14:30;100472.94;;;14.46;100.00
33280;BME280;20403;43.114;12.434;2023-02-16T14:22:37;100466.16;;;14.38;100.00
33280;BME280;20403;43.114;12.434;2023-02-16T14:25:29;100462.94;;;14.36;100.00
33280;BME280;20403;43.114;12.434;2023-02-16T14:27:54;100463.84;;;14.48;100.00
33280;BME280;20403;43.114;12.434;2023-02-16T14:38:30;100464.75;;;14.36;100.00
33280;BME280;20403;43.114;12.434;2023-02-16T14:40:59;100465.31;;;14.44;100.00
33280;BME280;20403;43.114;12.434;2023-02-16T14:43:40;100465.94;;;14.40;100.00
33280;BME280;20403;43.114;12.434;2023-02-16T15:00:14;100469.25;;;14.28;100.00
33280;BME280;20403;43.114;12.434;2023-02-16T15:02:53;100463.59;;;14.25;100.00
33280;BME280;20403;43.114;12.434;2023-02-16T15:05:25;100461.78;;;14.25;100.00
33280;BME280;20403;43.114;12.434;2023-02-16T15:08:07;100465.47;;;14.18;100.00
33280;BME280;20403;43.114;12.434;2023-02-16T15:10:35;100463.94;;;14.03;100.00
33280;BME280;20403;43.114;12.434;2023-02-16T15:13:02;100469.28;;;13.83;100.00
33280;BME280;20403;43.114;12.434;2023-02-16T15:15:40;100475.88;;;13.54;100.00
33280;BME280;20403;43.114;12.434;2023-02-16T15:18:13;100474.25;;;13.53;100.00
33280;BME280;20403;43.114;12.434;2023-02-16T15:20:43;100478.94;;;13.38;100.00
33280;BME280;20403;43.114;12.434;2023-02-16T15:23:24;100487.00;;;13.23;100.00
33280;BME280;20403;43.114;12.434;2023-02-16T15:26:06;100482.97;;;13.20;100.00
33280;BME280;20403;43.114;12.434;2023-02-16T15:28:39;100480.53;;;13.12;100.00
33280;BME280;20403;43.114;12.434;2023-02-16T15:31:36;100485.81;;;12.99;100.00
33280;BME280;20403;43.114;12.434;2023-02-16T15:34:09;100491.25;;;12.91;100.00
33280;BME280;20403;43.114;12.434;2023-02-16T15:36:41;100494.47;;;12.79;100.00
33280;BME280;20403;43.114;12.434;2023-02-16T15:39:15;100487.63;;;12.58;100.00
33280;BME280;20403;43.114;12.434;2023-02-16T15:41:48;100491.03;;;12.59;100.00
33280;BME280;20403;43.114;12.434;2023-02-16T15:44:31;100487.22;;;12.48;100.00
33280;BME280;20403;43.114;12.434;2023-02-16T15:47:27;100487.19;;;12.35;100.00
33280;BME280;20403;43.114;12.434;2023-02-16T15:49:53;100492.84;;;12.38;100.00
33280;BME280;20403;43.114;12.434;2023-02-16T15:52:31;100493.44;;;12.27;100.00
33280;BME280;20403;43.114;12.434;2023-02-16T15:54:59;100490.19;;;12.25;100.00
33280;BME280;20403;43.114;12.434;2023-02-16T15:57:35;100490.78;;;12.21;100.00
33280;BME280;20403;43.114;12.434;2023-02-16T16:00:13;100484.50;;;12.08;100.00
33280;BME280;20403;43.114;12.434;2023-02-16T16:02:45;100481.72;;;12.10;100.00
33280;BME280;20403;43.114;12.434;2023-02-16T16:05:29;100490.97;;;12.12;100.00
33280;BME280;20403;43.114;12.434;2023-02-16T16:08:02;100487.72;;;12.04;100.00
33280;BME280;20403;43.114;12.434;2023-02-16T16:10:33;100486.31;;;12.01;100.00
33280;BME280;20403;43.114;12.434;2023-02-16T16:13:06;100496.16;;;11.92;100.00
33280;BME280;20403;43.114;12.434;2023-02-16T16:15:41;100498.34;;;11.89;100.00
33280;BME280;20403;43.114;12.434;2023-02-16T16:23:36;100500.41;;;11.65;100.00
33280;BME280;20403;43.114;12.434;2023-02-16T16:26:01;100493.38;;;11.66;100.00
33280;BME280;20403;43.114;12.434;2023-02-16T16:33:59;100502.59;;;11.27;100.00
33280;BME280;20403;43.114;12.434;2023-02-16T16:36:31;100510.16;;;11.15;100.00
33280;BME280;20403;43.114;12.434;2023-02-16T16:39:25;100505.16;;;10.92;100.00
33280;BME280;20403;43.114;12.434;2023-02-16T16:47:20;100512.28;;;10.55;100.00
33280;BME280;20403;43.114;12.434;2023-02-16T16:50:18;100516.00;;;10.46;100.00
33280;BME280;20403;43.114;12.434;2023-02-16T16:52:48;100509.72;;;10.25;100.00
33280;BME280;20403;43.114;12.434;2023-02-16T16:55:26;100511.50;;;10.03;100.00
33280;BME280;20403;43.114;12.434;2023-02-16T16:57:53;100515.22;;;9.94;100.00
33280;BME280;20403;43.114;12.434;2023-02-16T17:00:20;100518.44;;;9.96;100.00
33280;BME280;20403;43.114;12.434;2023-02-16T17:02:46;100520.88;;;9.83;100.00
33280;BME280;20403;43.114;12.434;2023-02-16T17:05:11;100518.38;;;9.60;100.00
33280;BME280;20403;43.114;12.434;2023-02-16T17:07:37;100515.16;;;9.43;100.00
33280;BME280;20403;43.114;12.434;2023-02-16T17:10:03;100518.09;;;9.40;100.00
33280;BME280;20403;43.114;12.434;2023-02-16T17:12:29;100523.88;;;9.50;100.00
33280;BME280;20403;43.114;12.434;2023-02-16T17:14:55;100517.13;;;9.56;100.00
33280;BME280;20403;43.114;12.434;2023-02-16T17:17:20;100519.69;;;9.26;100.00
33280;BME280;20403;43.114;12.434;2023-02-16T17:19:45;100518.47;;;9.22;100.00
33280;BME280;20403;43.114;12.434;2023-02-16T17:22:12;100513.56;;;9.04;100.00
33280;BME280;20403;43.114;12.434;2023-02-16T17:24:38;100513.88;;;8.86;100.00
33280;BME280;20403;43.114;12.434;2023-02-16T17:27:04;100514.38;;;8.67;100.00
33280;BME280;20403;43.114;12.434;2023-02-16T17:29:29;100509.69;;;8.62;100.00
33280;BME280;20403;43.114;12.434;2023-02-16T17:31:55;100516.97;;;8.67;100.00
33280;BME280;20403;43.114;12.434;2023-02-16T17:34:20;100511.44;;;8.61;100.00
33280;BME280;20403;43.114;12.434;2023-02-16T17:36:49;100511.06;;;8.50;100.00
33280;BME280;20403;43.114;12.434;2023-02-16T17:39:15;100512.88;;;8.41;100.00
33280;BME280;20403;43.114;12.434;2023-02-16T17:41:40;100516.69;;;8.30;100.00
33280;BME280;20403;43.114;12.434;2023-02-16T17:44:05;100521.19;;;8.36;100.00
33280;BME280;20403;43.114;12.434;2023-02-16T17:46:31;100518.78;;;8.27;100.00
33280;BME280;20403;43.114;12.434;2023-02-16T17:48:56;100521.78;;;8.15;100.00
33280;BME280;20403;43.114;12.434;2023-02-16T17:51:24;100514.81;;;8.16;100.00
33280;BME280;20403;43.114;12.434;2023-02-16T17:53:49;100520.75;;;8.25;100.00
33280;BME280;20403;43.114;12.434;2023-02-16T17:56:18;100520.00;;;8.16;100.00
33280;BME280;20403;43.114;12.434;2023-02-16T17:58:44;100520.72;;;8.02;100.00
33280;BME280;20403;43.114;12.434;2023-02-16T18:01:12;100518.47;;;7.98;100.00
33280;BME280;20403;43.114;12.434;2023-02-16T18:03:38;100518.53;;;7.82;100.00
33280;BME280;20403;43.114;12.434;2023-02-16T18:06:04;100524.88;;;7.79;100.00
33280;BME280;20403;43.114;12.434;2023-02-16T18:08:29;100523.44;;;7.69;100.00
33280;BME280;20403;43.114;12.434;2023-02-16T18:10:55;100531.22;;;7.69;100.00
33280;BME280;20403;43.114;12.434;2023-02-16T18:13:27;100542.09;;;7.64;100.00
33280;BME280;20403;43.114;12.434;2023-02-16T18:15:52;100541.66;;;7.61;100.00
33280;BME280;20403;43.114;12.434;2023-02-16T18:18:19;100540.69;;;7.53;100.00
33280;BME280;20403;43.114;12.434;2023-02-16T18:20:45;100544.56;;;7.57;100.00
33280;BME280;20403;43.114;12.434;2023-02-16T18:23:11;100541.50;;;7.46;100.00
33280;BME280;20403;43.114;12.434;2023-02-16T18:25:37;100544.75;;;7.48;100.00
33280;BME280;20403;43.114;12.434;2023-02-16T18:28:03;100544.75;;;7.48;100.00
33280;BME280;20403;43.114;12.434;2023-02-16T18:30:29;100555.47;;;7.36;100.00
33280;BME280;20403;43.114;12.434;2023-02-16T18:32:54;100548.00;;;7.25;100.00
33280;BME280;20403;43.114;12.434;2023-02-16T18:35:20;100553.53;;;7.22;100.00
33280;BME280;20403;43.114;12.434;2023-02-16T18:37:46;100561.19;;;7.07;100.00
33280;BME280;20403;43.114;12.434;2023-02-16T18:40:15;100558.56;;;6.99;100.00
33280;BME280;20403;43.114;12.434;2023-02-16T18:42:41;100555.16;;;7.07;100.00
33280;BME280;20403;43.114;12.434;2023-02-16T18:45:07;100555.81;;;7.01;100.00
33280;BME280;20403;43.114;12.434;2023-02-16T18:47:33;100559.06;;;7.03;100.00
33280;BME280;20403;43.114;12.434;2023-02-16T18:49:58;100553.56;;;6.89;100.00
33280;BME280;20403;43.114;12.434;2023-02-16T18:52:24;100550.13;;;6.97;100.00
33280;BME280;20403;43.114;12.434;2023-02-16T18:54:49;100555.00;;;6.84;100.00
33280;BME280;20403;43.114;12.434;2023-02-16T18:57:15;100555.97;;;6.83;100.00
33280;BME280;20403;43.114;12.434;2023-02-16T18:59:40;100556.44;;;6.70;100.00
33280;BME280;20403;43.114;12.434;2023-02-16T19:02:06;100558.22;;;6.86;100.00
33280;BME280;20403;43.114;12.434;2023-02-16T19:04:32;100561.97;;;6.91;100.00
33280;BME280;20403;43.114;12.434;2023-02-16T19:06:57;100562.47;;;6.87;100.00
33280;BME280;20403;43.114;12.434;2023-02-16T19:09:23;100565.53;;;6.90;100.00
33280;BME280;20403;43.114;12.434;2023-02-16T19:11:49;100565.69;;;6.97;100.00
33280;BME280;20403;43.114;12.434;2023-02-16T19:14:14;100575.25;;;6.88;100.00
33280;BME280;20403;43.114;12.434;2023-02-16T19:16:42;100574.16;;;6.91;100.00
33280;BME280;20403;43.114;12.434;2023-02-16T19:19:07;100583.88;;;7.05;100.00
33280;BME280;20403;43.114;12.434;2023-02-16T19:21:33;100579.00;;;7.10;100.00
33280;BME280;20403;43.114;12.434;2023-02-16T19:23:58;100574.78;;;7.18;100.00
33280;BME280;20403;43.114;12.434;2023-02-16T19:26:24;100579.34;;;7.24;100.00
33280;BME280;20403;43.114;12.434;2023-02-16T19:28:51;100572.19;;;7.18;100.00
33280;BME280;20403;43.114;12.434;2023-02-16T19:31:22;100571.22;;;7.19;100.00
33280;BME280;20403;43.114;12.434;2023-02-16T19:33:48;100571.72;;;7.30;100.00
33280;BME280;20403;43.114;12.434;2023-02-16T19:36:15;100567.28;;;7.47;100.00
33280;BME280;20403;43.114;12.434;2023-02-16T19:38:41;100572.94;;;7.67;100.00
33280;BME280;20403;43.114;12.434;2023-02-16T19:43:33;100586.72;;;7.68;100.00
33280;BME280;20403;43.114;12.434;2023-02-16T19:46:01;100585.25;;;7.73;100.00
33280;BME280;20403;43.114;12.434;2023-02-16T19:48:27;100591.75;;;7.69;100.00
33280;BME280;20403;43.114;12.434;2023-02-16T19:50:59;100590.78;;;7.70;100.00
33280;BME280;20403;43.114;12.434;2023-02-16T19:53:25;100589.63;;;7.81;100.00
33280;BME280;20403;43.114;12.434;2023-02-16T19:55:51;100591.72;;;7.86;100.00
33280;BME280;20403;43.114;12.434;2023-02-16T19:58:17;100589.59;;;7.97;100.00
33280;BME280;20403;43.114;12.434;2023-02-16T20:00:43;100594.78;;;7.97;100.00
33280;BME280;20403;43.114;12.434;2023-02-16T20:03:08;100583.91;;;7.94;100.00
33280;BME280;20403;43.114;12.434;2023-02-16T20:05:34;100593.31;;;7.95;100.00
33280;BME280;20403;43.114;12.434;2023-02-16T20:07:59;100592.50;;;7.94;100.00
33280;BME280;20403;43.114;12.434;2023-02-16T20:10:25;100594.94;;;7.96;100.00
33280;BME280;20403;43.114;12.434;2023-02-16T20:12:50;100587.75;;;8.06;100.00
33280;BME280;20403;43.114;12.434;2023-02-16T20:15:16;100589.06;;;8.02;100.00
33280;BME280;20403;43.114;12.434;2023-02-16T20:17:42;100597.16;;;8.07;100.00
33280;BME280;20403;43.114;12.434;2023-02-16T20:20:07;100596.19;;;8.08;100.00
33280;BME280;20403;43.114;12.434;2023-02-16T20:22:33;100601.22;;;8.02;100.00
33280;BME280;20403;43.114;12.434;2023-02-16T20:24:58;100602.31;;;8.15;100.00
33280;BME280;20403;43.114;12.434;2023-02-16T20:27:24;100600.06;;;8.12;100.00
33280;BME280;20403;43.114;12.434;2023-02-16T20:29:51;100600.72;;;8.14;100.00
33280;BME280;20403;43.114;12.434;2023-02-16T20:32:16;100607.97;;;8.27;100.00
33280;BME280;20403;43.114;12.434;2023-02-16T20:34:42;100608.94;;;8.26;100.00
33280;BME280;20403;43.114;12.434;2023-02-16T20:37:07;100612.69;;;8.24;100.00
33280;BME280;20403;43.114;12.434;2023-02-16T20:39:33;100607.97;;;8.27;100.00
33280;BME280;20403;43.114;12.434;2023-02-16T20:41:58;100604.38;;;8.28;100.00
33280;BME280;20403;43.114;12.434;2023-02-16T20:44:25;100599.50;;;8.41;100.00
33280;BME280;20403;43.114;12.434;2023-02-16T20:46:50;100599.34;;;8.35;100.00
33280;BME280;20403;43.114;12.434;2023-02-16T20:49:16;100601.00;;;8.28;100.00
33280;BME280;20403;43.114;12.434;2023-02-16T20:51:42;100607.16;;;8.27;100.00
33280;BME280;20403;43.114;12.434;2023-02-16T20:54:07;100611.38;;;8.28;100.00
33280;BME280;20403;43.114;12.434;2023-02-16T20:56:32;100612.66;;;8.40;100.00
33280;BME280;20403;43.114;12.434;2023-02-16T20:58:58;100608.41;;;8.39;100.00
33280;BME280;20403;43.114;12.434;2023-02-16T21:03:50;100606.13;;;8.44;100.00
33280;BME280;20403;43.114;12.434;2023-02-16T21:06:16;100603.03;;;8.49;100.00
33280;BME280;20403;43.114;12.434;2023-02-16T21:08:42;100606.22;;;8.59;100.00
33280;BME280;20403;43.114;12.434;2023-02-16T21:11:08;100611.25;;;8.60;100.00
33280;BME280;20403;43.114;12.434;2023-02-16T21:13:35;100614.59;;;8.46;100.00
33280;BME280;20403;43.114;12.434;2023-02-16T21:16:01;100612.44;;;8.50;100.00
33280;BME280;20403;43.114;12.434;2023-02-16T21:18:26;100615.44;;;8.30;100.00
33280;BME280;20403;43.114;12.434;2023-02-16T21:20:52;100611.03;;;8.31;100.00
33280;BME280;20403;43.114;12.434;2023-02-16T21:23:17;100619.63;;;8.31;100.00
33280;BME280;20403;43.114;12.434;2023-02-16T21:25:43;100621.78;;;8.19;100.00
33280;BME280;20403;43.114;12.434;2023-02-16T21:28:08;100624.09;;;8.23;100.00